Time;durP1;ratioP1;P1;durP2;ratioP2;P2;SDS_P1;SDS_P2;PMS_P1;PMS_P2;Temp;Humidity;BMP_temperature;BMP_pressure;BME280_temperature;BME280_humidity;BME280_pressure;Samples;Min_cycle;Max_cycle;Signal;HPM_P1;HPM_P2
2021/12/06 00:01:29;;;;;;;57.47;28.08;;;;;;;7.93;83.13;98979.41;4896946;29;20711;-48
2021/12/06 00:04:17;;;;;;;50.75;26.55;;;;;;;7.93;83.53;98971.47;4896968;29;20032;-48
2021/12/06 00:06:45;;;;;;;56.63;27.40;;;;;;;8.01;84.04;98973.91;4896738;29;20407;-48
2021/12/06 00:09:13;;;;;;;55.45;27.63;;;;;;;7.93;83.87;98990.81;4896477;29;20070;-50
2021/12/06 00:11:39;;;;;;;56.60;27.20;;;;;;;7.98;84.40;99006.13;4896767;29;20033;-49
2021/12/06 00:14:04;;;;;;;56.15;27.52;;;;;;;8.19;84.67;98994.50;4896596;29;20039;-52
2021/12/06 00:16:30;;;;;;;60.58;29.65;;;;;;;8.87;82.44;98980.03;4896847;29;20021;-49
2021/12/06 00:18:55;;;;;;;56.17;27.63;;;;;;;8.42;82.57;98983.47;4896419;29;20033;-49
2021/12/06 00:21:21;;;;;;;51.33;26.58;;;;;;;8.41;83.03;98987.09;4896384;29;20385;-52
2021/12/06 00:23:47;;;;;;;54.00;27.05;;;;;;;8.38;83.39;98977.72;4897057;29;20032;-50
2021/12/06 00:26:12;;;;;;;57.50;27.17;;;;;;;8.39;84.02;98987.28;4896825;29;20430;-49
2021/12/06 00:28:38;;;;;;;60.63;26.42;;;;;;;8.33;83.64;98993.44;4897120;29;20402;-50
2021/12/06 00:31:04;;;;;;;57.33;27.77;;;;;;;8.26;84.35;99005.88;4896771;29;20485;-51
2021/12/06 00:33:29;;;;;;;62.75;28.60;;;;;;;8.39;83.32;99008.50;4896983;29;20039;-49
2021/12/06 00:35:57;;;;;;;57.97;27.45;;;;;;;8.23;84.12;99004.47;4896846;29;20044;-50
2021/12/06 00:38:22;;;;;;;54.80;26.42;;;;;;;8.16;84.42;99002.84;4896852;29;20071;-49
2021/12/06 00:40:48;;;;;;;54.58;28.02;;;;;;;8.20;83.88;98993.44;4896600;29;20028;-48
2021/12/06 00:43:14;;;;;;;56.35;28.30;;;;;;;8.25;84.05;98984.91;4896800;29;20028;-48
2021/12/06 00:45:39;;;;;;;55.33;27.75;;;;;;;8.11;84.08;98987.56;4895777;29;20367;-48
2021/12/06 00:48:05;;;;;;;56.97;27.35;;;;;;;8.13;83.81;98966.13;4896380;29;20037;-50
2021/12/06 00:50:32;;;;;;;58.80;27.95;;;;;;;8.24;84.00;98989.38;4896335;29;20036;-48
2021/12/06 00:52:57;;;;;;;59.78;27.77;;;;;;;8.07;84.72;98988.97;4896162;29;20060;-50
2021/12/06 00:55:23;;;;;;;59.03;27.55;;;;;;;8.16;84.59;98982.44;4896241;29;20040;-49
2021/12/06 00:57:49;;;;;;;55.97;26.83;;;;;;;8.06;83.93;98982.06;4896838;29;20188;-49
2021/12/06 01:00:36;;;;;;;53.20;26.85;;;;;;;8.11;83.70;98990.22;4878548;29;20032;-49
2021/12/06 01:03:03;;;;;;;49.53;24.75;;;;;;;7.93;84.74;98990.81;4896340;29;20040;-49
2021/12/06 01:05:29;;;;;;;58.78;26.33;;;;;;;7.83;85.31;98983.28;4896358;29;20028;-49
2021/12/06 01:07:55;;;;;;;55.95;26.02;;;;;;;7.90;85.18;98955.97;4896007;29;20075;-50
2021/12/06 01:10:22;;;;;;;58.13;26.65;;;;;;;7.74;86.11;98955.38;4896393;29;20123;-50
2021/12/06 01:12:47;;;;;;;57.58;26.40;;;;;;;7.91;85.78;98950.47;4894782;29;20060;-50
2021/12/06 01:15:13;;;;;;;60.83;26.85;;;;;;;7.80;86.91;98945.78;4894077;29;20066;-49
2021/12/06 01:17:38;;;;;;;60.55;27.85;;;;;;;8.57;83.78;98968.13;4895429;29;20036;-50
2021/12/06 01:20:06;;;;;;;60.22;26.40;;;;;;;8.10;83.95;98932.91;4895786;29;20446;-50
2021/12/06 01:22:42;;;;;;;64.10;26.75;;;;;;;8.14;84.60;98942.09;4895639;29;20036;-52
2021/12/06 01:25:20;;;;;;;59.25;26.85;;;;;;;7.99;84.87;98950.25;4895784;29;20043;-52
2021/12/06 01:28:12;;;;;;;63.20;27.17;;;;;;;7.98;84.98;98948.66;4895332;29;20111;-52
2021/12/06 01:30:50;;;;;;;61.03;27.30;;;;;;;7.77;87.02;98946.22;4881093;29;20037;-52
2021/12/06 01:41:11;;;;;;;58.22;26.17;;;;;;;8.13;87.08;98947.59;4895358;29;20035;-49
2021/12/06 01:43:36;;;;;;;69.07;27.55;;;;;;;8.81;85.13;98939.25;4895272;29;20036;-49
2021/12/06 01:46:02;;;;;;;56.97;26.27;;;;;;;8.44;83.35;98936.34;4895148;29;20035;-51
2021/12/06 01:48:27;;;;;;;63.40;26.40;;;;;;;8.15;83.68;98935.78;4895143;29;20446;-48
2021/12/06 01:50:53;;;;;;;60.83;25.05;;;;;;;8.16;84.63;98934.75;4895078;29;20043;-49
2021/12/06 01:53:18;;;;;;;63.53;26.65;;;;;;;8.09;84.90;98931.31;4895166;29;20028;-48
2021/12/06 01:55:44;;;;;;;60.28;26.65;;;;;;;7.90;86.52;98921.53;4895768;29;20056;-48
2021/12/06 01:58:09;;;;;;;58.33;26.55;;;;;;;7.79;88.08;98930.94;4898998;29;20485;-49
2021/12/06 02:00:51;;;;;;;65.13;26.98;;;;;;;8.59;84.99;98917.53;4898838;29;20024;-49
2021/12/06 02:03:16;;;;;;;63.08;25.33;;;;;;;8.51;84.37;98925.69;4898979;29;20047;-48
2021/12/06 02:05:43;;;;;;;62.05;24.88;;;;;;;8.27;85.18;98925.34;4899443;29;20024;-49
2021/12/06 02:08:08;;;;;;;62.95;26.25;;;;;;;7.99;84.33;98915.00;4899585;29;20119;-49
2021/12/06 02:10:34;;;;;;;69.93;27.08;;;;;;;7.82;85.95;98923.41;4899437;29;20037;-48
2021/12/06 02:13:00;;;;;;;65.97;26.10;;;;;;;8.06;85.53;98925.59;4899041;29;20094;-49
2021/12/06 02:18:02;;;;;;;64.70;25.42;;;;;;;7.87;85.70;98921.97;4899210;29;20032;-48
2021/12/06 02:20:29;;;;;;;62.28;24.42;;;;;;;7.81;86.43;98913.81;4898805;29;20045;-48
2021/12/06 02:22:55;;;;;;;69.97;25.25;;;;;;;8.55;85.13;98913.66;4899170;29;20028;-49
2021/12/06 02:25:20;;;;;;;64.00;24.48;;;;;;;8.41;84.05;98910.19;4899064;29;20035;-49
2021/12/06 02:27:47;;;;;;;67.93;24.33;;;;;;;8.21;84.58;98905.78;4898740;29;20039;-50
2021/12/06 02:30:13;;;;;;;66.45;22.65;;;;;;;7.87;85.62;98920.13;4899076;29;20193;-49
2021/12/06 02:32:39;;;;;;;64.07;22.52;;;;;;;7.85;86.86;98921.34;4899240;29;20464;-48
2021/12/06 02:35:07;;;;;;;61.60;21.15;;;;;;;7.74;86.61;98931.53;4898629;29;20212;-49
2021/12/06 02:37:33;;;;;;;73.30;23.88;;;;;;;7.97;87.77;98906.44;4897475;29;20040;-48
2021/12/06 02:39:58;;;;;;;72.20;23.65;;;;;;;8.61;85.51;98895.06;4899234;29;20115;-48
2021/12/06 02:42:24;;;;;;;64.65;21.60;;;;;;;8.23;85.28;98885.19;4898625;29;20099;-50
2021/12/06 02:44:50;;;;;;;67.78;21.42;;;;;;;8.31;84.31;98881.47;4897714;29;20334;-50
2021/12/06 02:47:15;;;;;;;62.95;20.95;;;;;;;7.97;84.98;98901.16;4899186;29;20039;-50
2021/12/06 02:49:41;;;;;;;59.00;21.10;;;;;;;7.85;86.23;98903.63;4898543;29;20092;-49
2021/12/06 02:52:07;;;;;;;66.78;22.48;;;;;;;7.90;86.78;98895.88;4898298;29;20033;-51
2021/12/06 02:54:33;;;;;;;66.38;23.35;;;;;;;8.14;86.35;98901.53;4898536;29;20173;-49
2021/12/06 02:57:20;;;;;;;66.93;23.48;;;;;;;8.01;86.37;98902.34;4898896;29;20125;-49
2021/12/06 02:59:46;;;;;;;69.25;22.95;;;;;;;8.68;84.27;98895.03;4898549;29;20034;-49
2021/12/06 03:02:16;;;;;;;65.72;22.33;;;;;;;8.51;83.92;98896.53;4897028;29;20362;-50
2021/12/06 03:04:41;;;;;;;69.47;22.17;;;;;;;8.00;85.84;98884.84;4898651;29;20020;-50
2021/12/06 03:07:07;;;;;;;67.32;21.90;;;;;;;7.86;86.58;98899.94;4897789;29;20482;-48
2021/12/06 03:09:35;;;;;;;68.97;22.60;;;;;;;8.10;85.18;98901.13;4897948;29;20490;-49
2021/12/06 03:12:03;;;;;;;67.70;22.35;;;;;;;8.17;85.00;98893.16;4898307;29;20039;-50
2021/12/06 03:14:35;;;;;;;63.28;21.50;;;;;;;7.87;85.56;98906.88;4898199;29;20116;-50
2021/12/06 03:17:01;;;;;;;61.10;21.50;;;;;;;7.79;86.08;98910.56;4897821;29;20036;-50
2021/12/06 03:19:27;;;;;;;65.68;20.90;;;;;;;7.76;86.87;98915.44;4897957;29;20059;-50
2021/12/06 03:21:52;;;;;;;68.93;23.02;;;;;;;7.77;86.64;98930.34;4897692;29;20060;-49
2021/12/06 03:24:18;;;;;;;70.03;23.15;;;;;;;8.67;84.51;98913.81;4897905;29;20112;-50
2021/12/06 03:26:44;;;;;;;67.50;21.73;;;;;;;8.40;84.69;98905.94;4897959;29;20481;-49
2021/12/06 03:29:09;;;;;;;63.80;21.65;;;;;;;8.11;86.07;98905.41;4897544;29;20055;-51
2021/12/06 03:31:35;;;;;;;67.03;22.98;;;;;;;7.91;85.44;98891.38;4897625;29;20107;-50
2021/12/06 03:34:00;;;;;;;65.32;22.55;;;;;;;8.00;84.29;98890.16;4897502;29;20130;-50
2021/12/06 03:36:27;;;;;;;64.95;23.90;;;;;;;7.86;85.97;98885.88;4897250;29;20493;-50
2021/12/06 03:38:53;;;;;;;68.22;22.50;;;;;;;7.72;86.65;98901.78;4897556;29;20025;-50
2021/12/06 03:41:20;;;;;;;64.65;22.67;;;;;;;7.72;86.11;98893.84;4897502;29;20025;-50
2021/12/06 03:43:45;;;;;;;76.07;24.45;;;;;;;7.52;87.85;98893.03;4897671;29;20103;-50
2021/12/06 03:46:12;;;;;;;76.57;25.30;;;;;;;8.54;84.58;98890.81;4897423;29;20025;-49
2021/12/06 03:48:38;;;;;;;66.18;21.92;;;;;;;8.35;84.66;98890.63;4897784;29;20032;-49
2021/12/06 03:51:03;;;;;;;72.18;24.25;;;;;;;8.22;85.15;98911.88;4897360;29;20536;-50
2021/12/06 03:53:29;;;;;;;70.40;23.73;;;;;;;8.12;85.73;98917.63;4897346;29;20513;-49
2021/12/06 03:55:54;;;;;;;73.82;23.38;;;;;;;8.01;86.57;98918.25;4897137;29;20024;-52
2021/12/06 03:58:20;;;;;;;78.75;25.17;;;;;;;8.14;86.13;98910.28;4897820;29;20039;-50
2021/12/06 04:00:46;;;;;;;73.95;23.80;;;;;;;8.18;85.41;98897.44;4897536;29;20394;-52
2021/12/06 04:03:11;;;;;;;72.25;24.02;;;;;;;8.21;85.60;98895.19;4897218;29;20029;-49
2021/12/06 04:05:37;;;;;;;69.53;24.67;;;;;;;8.22;85.23;98898.63;4897256;29;20031;-49
2021/12/06 04:08:02;;;;;;;71.93;24.08;;;;;;;8.35;84.82;98903.91;4897174;29;20070;-50
2021/12/06 04:10:28;;;;;;;64.10;22.40;;;;;;;8.25;85.21;98902.72;4897133;29;20028;-49
2021/12/06 04:13:00;;;;;;;65.60;22.95;;;;;;;8.07;85.50;98908.66;4896635;29;20092;-53
2021/12/06 04:15:29;;;;;;;67.82;22.77;;;;;;;8.16;85.10;98913.53;4897000;29;20035;-51
2021/12/06 04:17:54;;;;;;;63.70;23.13;;;;;;;8.25;84.21;98898.22;4896504;29;20474;-55
2021/12/06 04:20:20;;;;;;;60.78;22.63;;;;;;;8.21;83.90;98897.84;4896397;29;20107;-51
2021/12/06 04:22:45;;;;;;;55.00;21.02;;;;;;;8.19;83.54;98899.06;4896863;29;20504;-50
2021/12/06 04:25:12;;;;;;;56.45;21.23;;;;;;;8.13;81.99;98884.81;4896636;29;20116;-52
2021/12/06 04:27:39;;;;;;;54.40;20.65;;;;;;;7.89;82.92;98888.94;4896596;29;20020;-52
2021/12/06 04:30:05;;;;;;;56.83;20.48;;;;;;;7.82;83.65;98888.13;4896812;29;20033;-49
2021/12/06 04:32:31;;;;;;;49.38;20.58;;;;;;;7.99;82.36;98886.66;4897056;29;20046;-51
2021/12/06 04:34:56;;;;;;;52.53;20.83;;;;;;;7.81;82.64;98889.16;4896316;29;20165;-50
2021/12/06 04:37:22;;;;;;;48.75;19.98;;;;;;;7.83;83.46;98897.72;4896778;29;20048;-49
2021/12/06 04:39:47;;;;;;;52.45;20.13;;;;;;;7.69;83.74;98886.34;4892980;29;20025;-49
2021/12/06 04:42:13;;;;;;;52.22;21.30;;;;;;;7.63;85.44;98901.22;4878211;29;20150;-48
2021/12/06 04:44:38;;;;;;;50.78;20.80;;;;;;;8.42;82.20;98895.97;4878017;29;20470;-51
2021/12/06 04:47:04;;;;;;;50.95;20.02;;;;;;;8.31;80.92;98893.94;4878091;29;20657;-39
2021/12/06 04:49:29;;;;;;;53.10;20.27;;;;;;;7.93;83.00;98899.94;4877927;29;20029;-39
2021/12/06 04:51:57;;;;;;;53.42;21.13;;;;;;;7.79;84.43;98897.31;4877436;29;20053;-39
2021/12/06 04:54:25;;;;;;;44.17;19.23;;;;;;;8.68;83.89;98907.47;4878136;29;20088;-39
2021/12/06 04:56:55;;;;;;;43.53;19.75;;;;;;;8.53;81.48;98911.22;4877873;29;20031;-39
2021/12/06 04:59:38;;;;;;;42.83;19.33;;;;;;;8.26;82.47;98889.25;4876490;29;20029;-38
2021/12/06 05:02:19;;;;;;;53.08;20.60;;;;;;;8.39;81.46;98885.75;4877595;29;20076;-38
2021/12/06 05:04:47;;;;;;;;;;;;;;;8.01;83.99;98910.31;4861931;29;20431;-38
2021/12/06 05:07:21;;;;;;;50.30;19.58;;;;;;;8.03;84.52;98892.38;4877679;29;19916;-38
2021/12/06 05:09:47;;;;;;;46.92;19.98;;;;;;;7.87;83.73;98900.78;4877645;29;20036;-38
2021/12/06 05:12:14;;;;;;;53.03;20.42;;;;;;;7.99;84.04;98904.41;4877619;29;20035;-40
2021/12/06 05:14:40;;;;;;;50.78;20.40;;;;;;;7.99;84.00;98888.50;4882110;29;20116;-38
2021/12/06 05:17:05;;;;;;;53.13;21.77;;;;;;;7.84;83.13;98867.53;4887895;29;20350;-38
2021/12/06 05:19:31;;;;;;;55.47;22.63;;;;;;;7.75;84.15;98904.03;4885737;29;20081;-38
2021/12/06 05:21:56;;;;;;;50.38;20.92;;;;;;;7.86;83.79;98901.78;4895264;29;20043;-40
2021/12/06 05:24:22;;;;;;;45.03;19.05;;;;;;;7.54;83.50;98914.84;4895274;29;20032;-52
2021/12/06 05:26:47;;;;;;;49.05;19.85;;;;;;;7.42;84.34;98925.22;4884992;29;20059;-49
2021/12/06 05:29:14;;;;;;;54.17;25.85;;;;;;;7.69;86.50;98911.97;4895526;29;20032;-49
2021/12/06 05:31:41;;;;;;;65.80;30.15;;;;;;;7.82;84.81;98910.16;4894404;29;20120;-50
2021/12/06 05:34:15;;;;;;;73.40;29.95;;;;;;;8.07;84.93;98912.13;4880651;29;20037;-51
2021/12/06 05:36:41;;;;;;;51.03;20.30;;;;;;;7.95;82.51;98906.66;4888381;29;20154;-50
2021/12/06 05:39:07;;;;;;;49.03;20.17;;;;;;;7.63;83.34;98909.16;4887082;29;20415;-50
2021/12/06 05:41:33;;;;;;;55.03;21.95;;;;;;;7.73;83.89;98924.63;4875837;29;20033;-51
2021/12/06 05:43:59;;;;;;;50.22;21.80;;;;;;;7.74;83.52;98920.94;4876278;29;20076;-50
2021/12/06 05:46:24;;;;;;;48.70;19.63;;;;;;;7.51;84.44;98941.72;4876324;29;20021;-50
2021/12/06 05:48:50;;;;;;;49.15;20.52;;;;;;;7.42;84.78;98939.28;4874836;29;20033;-47
2021/12/06 05:51:16;;;;;;;52.40;21.80;;;;;;;7.62;84.17;98923.41;4874604;29;20106;-49
2021/12/06 05:53:41;;;;;;;48.55;20.50;;;;;;;7.50;83.48;98927.69;4873807;29;20025;-49
2021/12/06 05:56:07;;;;;;;46.88;19.00;;;;;;;7.43;83.93;98930.31;4875211;29;20033;-53
2021/12/06 05:58:34;;;;;;;44.63;20.10;;;;;;;7.64;83.69;98917.91;4872636;29;20033;-52
2021/12/06 06:01:00;;;;;;;47.60;18.27;;;;;;;7.57;83.91;98923.19;4878267;29;20329;-50
2021/12/06 06:03:25;;;;;;;42.38;18.33;;;;;;;7.43;84.54;98924.22;4892053;29;20032;-51
2021/12/06 06:05:52;;;;;;;88.78;41.80;;;;;;;7.37;84.65;98925.84;4892863;29;20165;-49
2021/12/06 06:08:17;;;;;;;50.78;21.13;;;;;;;7.31;85.31;98924.00;4893156;29;20138;-49
2021/12/06 06:10:43;;;;;;;56.67;21.75;;;;;;;7.55;85.89;98919.13;4893250;29;20524;-51
2021/12/06 06:13:08;;;;;;;54.90;22.70;;;;;;;8.44;82.61;98922.28;4893600;29;20028;-49
2021/12/06 06:15:34;;;;;;;50.88;21.75;;;;;;;7.98;83.54;98924.78;4894516;29;20039;-49
2021/12/06 06:18:00;;;;;;;67.28;23.00;;;;;;;8.00;82.91;98933.34;4895071;29;20036;-49
2021/12/06 06:20:55;;;;;;;74.60;25.17;;;;;;;7.66;84.44;98938.88;4895120;29;20050;-50
2021/12/06 06:23:21;;;;;;;86.20;29.13;;;;;;;7.66;87.00;98942.34;4878469;29;20053;-49
2021/12/06 06:25:46;;;;;;;144.52;50.60;;;;;;;8.35;86.27;98943.66;4894955;29;20395;-49
2021/12/06 06:28:12;;;;;;;133.60;48.42;;;;;;;8.53;85.44;98940.38;4895089;29;20481;-50
2021/12/06 06:30:37;;;;;;;96.90;31.60;;;;;;;8.18;85.33;98940.66;4894830;29;20037;-49
2021/12/06 06:33:03;;;;;;;90.15;30.45;;;;;;;8.05;85.30;98945.97;4894722;29;20108;-48
2021/12/06 06:35:30;;;;;;;77.28;27.95;;;;;;;7.95;84.92;98958.84;4895002;29;20145;-50
2021/12/06 06:37:56;;;;;;;85.90;29.95;;;;;;;7.77;85.38;98954.97;4894609;29;20032;-51
2021/12/06 06:40:21;;;;;;;66.95;26.40;;;;;;;7.86;85.10;98949.47;4894971;29;20109;-51
2021/12/06 06:42:47;;;;;;;53.75;23.23;;;;;;;7.92;82.91;98938.88;4895760;29;20059;-50
2021/12/06 06:45:14;;;;;;;50.95;22.23;;;;;;;7.75;83.57;98940.28;4898538;29;20040;-49
2021/12/06 06:47:39;;;;;;;54.95;22.30;;;;;;;7.63;83.41;98940.94;4898485;29;20037;-49
2021/12/06 06:50:06;;;;;;;49.95;22.98;;;;;;;7.68;84.15;98929.72;4898527;29;20463;-51
2021/12/06 06:52:31;;;;;;;59.58;25.80;;;;;;;7.80;83.65;98940.50;4897903;29;20033;-49
2021/12/06 06:54:57;;;;;;;67.18;27.33;;;;;;;7.75;84.02;98927.88;4898307;29;20051;-50
2021/12/06 06:57:23;;;;;;;60.10;25.23;;;;;;;7.72;83.45;98932.78;4898082;29;20059;-50
2021/12/06 06:59:49;;;;;;;62.22;25.20;;;;;;;7.85;82.97;98935.41;4898427;29;20029;-49
2021/12/06 07:02:14;;;;;;;72.25;33.72;;;;;;;7.94;83.40;98934.19;4897983;29;20448;-49
2021/12/06 07:04:40;;;;;;;90.70;38.65;;;;;;;7.88;83.13;98928.88;4896827;29;20487;-51
2021/12/06 07:07:05;;;;;;;90.65;37.60;;;;;;;7.86;83.68;98915.84;4897731;29;20028;-51
2021/12/06 07:09:30;;;;;;;66.80;27.70;;;;;;;7.85;83.68;98922.16;4897744;29;20132;-49
2021/12/06 07:11:58;;;;;;;64.40;26.20;;;;;;;7.90;82.66;98927.66;4881104;29;20043;-48
2021/12/06 07:14:23;;;;;;;65.43;24.33;;;;;;;7.96;83.10;98926.84;4897937;29;20032;-51
2021/12/06 07:16:49;;;;;;;40.72;18.73;;;;;;;8.16;80.71;98923.34;4897825;29;20403;-51
2021/12/06 07:19:15;;;;;;;43.15;19.38;;;;;;;8.16;80.46;98923.34;4898127;29;20060;-50
2021/12/06 07:21:40;;;;;;;42.15;18.50;;;;;;;8.09;80.45;98914.56;4897785;29;20036;-53
2021/12/06 07:24:06;;;;;;;44.55;18.05;;;;;;;8.12;80.68;98914.16;4898023;29;20111;-49
2021/12/06 07:26:31;;;;;;;37.60;17.92;;;;;;;8.09;80.51;98918.06;4897917;29;20107;-51
2021/12/06 07:28:57;;;;;;;45.17;17.95;;;;;;;7.85;82.21;98910.75;4897671;29;20032;-50
2021/12/06 07:31:23;;;;;;;41.47;18.17;;;;;;;7.95;81.83;98919.91;4897645;29;20028;-51
2021/12/06 07:33:49;;;;;;;46.45;19.00;;;;;;;7.91;82.09;98921.34;4897558;29;20033;-50
2021/12/06 07:36:14;;;;;;;44.50;19.38;;;;;;;8.08;82.20;98921.72;4896873;29;20056;-51
2021/12/06 07:38:41;;;;;;;48.83;20.33;;;;;;;8.23;81.33;98924.13;4897597;29;20493;-52
2021/12/06 07:41:08;;;;;;;61.85;24.02;;;;;;;8.26;81.18;98918.41;4896251;29;20025;-48
2021/12/06 07:43:34;;;;;;;58.15;22.95;;;;;;;8.17;81.54;98919.66;4897224;29;20028;-53
2021/12/06 07:46:00;;;;;;;51.85;23.02;;;;;;;8.27;81.79;98903.34;4897323;29;20028;-49
2021/12/06 07:48:25;;;;;;;55.92;23.90;;;;;;;9.18;79.24;98916.38;4897645;29;20039;-52
2021/12/06 07:50:51;;;;;;;55.85;22.88;;;;;;;9.19;78.94;98922.50;4897132;29;20043;-49
2021/12/06 07:53:16;;;;;;;55.58;23.40;;;;;;;9.05;78.40;98928.94;4897094;29;20032;-50
2021/12/06 07:55:42;;;;;;;61.50;25.02;;;;;;;9.12;77.98;98922.56;4896833;29;20057;-50
2021/12/06 07:58:08;;;;;;;57.00;23.25;;;;;;;8.96;78.37;98918.53;4896746;29;20028;-49
2021/12/06 08:00:35;;;;;;;59.22;24.23;;;;;;;8.72;79.08;98900.72;4897245;29;20108;-49
2021/12/06 08:03:01;;;;;;;63.58;27.90;;;;;;;8.77;79.66;98899.06;4896719;29;20063;-49
2021/12/06 08:05:29;;;;;;;93.35;38.78;;;;;;;8.82;79.27;98895.78;4896755;29;20128;-49
2021/12/06 08:08:04;;;;;;;72.88;29.42;;;;;;;8.82;79.58;98893.13;4896823;29;20031;-51
2021/12/06 08:10:30;;;;;;;54.80;23.52;;;;;;;8.61;80.15;98897.72;4891721;29;20033;-51
2021/12/06 08:12:55;;;;;;;60.78;23.55;;;;;;;8.86;81.47;98912.09;4893966;29;20032;-50
2021/12/06 08:15:21;;;;;;;59.03;23.85;;;;;;;9.84;77.79;98905.44;4896759;29;20044;-50
2021/12/06 08:17:46;;;;;;;52.75;23.17;;;;;;;9.58;78.40;98894.84;4897095;29;20119;-51
2021/12/06 08:20:13;;;;;;;62.28;24.85;;;;;;;9.48;79.30;98899.00;4896821;29;20146;-51
2021/12/06 08:22:39;;;;;;;58.50;25.08;;;;;;;9.49;78.29;98903.28;4896783;29;20040;-56
2021/12/06 08:25:04;;;;;;;59.10;24.08;;;;;;;9.48;78.48;98894.53;4896888;29;20088;-51
2021/12/06 08:27:30;;;;;;;58.30;23.90;;;;;;;9.62;78.59;98897.88;4896490;29;20088;-50
2021/12/06 08:29:55;;;;;;;59.53;25.33;;;;;;;9.75;77.40;98889.78;4896116;29;20025;-51
2021/12/06 08:32:21;;;;;;;58.45;25.52;;;;;;;9.62;78.18;98905.03;4896012;29;20033;-49
2021/12/06 08:34:46;;;;;;;58.25;24.05;;;;;;;9.71;77.70;98893.06;4895779;29;20039;-50
2021/12/06 08:37:12;;;;;;;60.25;24.42;;;;;;;9.57;78.98;98887.06;4896361;29;20573;-51
2021/12/06 08:39:38;;;;;;;58.47;25.08;;;;;;;9.49;79.55;98901.44;4896182;29;20440;-52
2021/12/06 08:42:04;;;;;;;62.53;25.23;;;;;;;9.69;78.21;98887.16;4896341;29;20036;-55
2021/12/06 08:44:29;;;;;;;56.47;23.75;;;;;;;9.63;79.38;98891.50;4896121;29;20153;-48
2021/12/06 08:46:54;;;;;;;66.88;26.08;;;;;;;9.63;79.81;98912.75;4896106;29;20059;-50
2021/12/06 08:49:20;;;;;;;67.15;27.45;;;;;;;9.71;78.69;98883.28;4896092;29;20032;-49
2021/12/06 08:51:50;;;;;;;59.53;25.20;;;;;;;9.69;78.61;98895.97;4896231;29;20033;-52
2021/12/06 08:54:18;;;;;;;66.07;25.85;;;;;;;9.49;79.23;98890.81;4896194;29;20099;-50
2021/12/06 08:56:44;;;;;;;64.72;27.08;;;;;;;9.14;80.01;98887.84;4896240;29;20052;-51
2021/12/06 08:59:10;;;;;;;65.15;26.67;;;;;;;9.31;80.14;98896.91;4896488;29;20025;-51
2021/12/06 09:01:35;;;;;;;87.95;36.45;;;;;;;9.37;80.06;98903.19;4896315;29;20390;-51
2021/12/06 09:04:01;;;;;;;91.72;38.38;;;;;;;9.48;79.83;98886.56;4896040;29;20041;-49
2021/12/06 09:06:26;;;;;;;61.10;24.50;;;;;;;9.45;79.81;98870.25;4895431;29;20028;-49
2021/12/06 09:08:54;;;;;;;61.35;25.83;;;;;;;9.63;79.15;98874.78;4896243;29;20024;-51
2021/12/06 09:11:19;;;;;;;77.05;29.45;;;;;;;9.86;78.53;98858.19;4895632;29;20141;-52
2021/12/06 09:13:45;;;;;;;75.93;29.73;;;;;;;10.34;78.03;98865.47;4895849;29;20033;-40
2021/12/06 09:16:11;;;;;;;65.60;27.65;;;;;;;10.15;76.98;98862.00;4885384;29;20029;-39
2021/12/06 09:18:38;;;;;;;77.05;27.60;;;;;;;9.79;78.10;98858.28;4882473;29;20094;-39
2021/12/06 09:21:05;;;;;;;73.57;26.90;;;;;;;9.62;79.18;98866.00;4886816;29;20510;-39
2021/12/06 09:23:30;;;;;;;74.45;27.58;;;;;;;9.58;79.33;98872.78;4885300;29;20037;-39
2021/12/06 09:25:56;;;;;;;71.60;27.30;;;;;;;9.70;78.59;98867.56;4871034;29;20114;-38
2021/12/06 09:28:27;;;;;;;151.98;64.35;;;;;;;9.73;78.63;98867.13;4867808;29;20037;-38
2021/12/06 09:30:52;;;;;;;73.53;27.30;;;;;;;9.60;79.76;98865.41;4886765;29;20032;-39
2021/12/06 09:33:20;;;;;;;73.68;26.42;;;;;;;9.48;80.30;98851.19;4875732;29;20040;-37
2021/12/06 09:35:46;;;;;;;66.82;25.17;;;;;;;9.56;80.48;98850.94;4876707;29;20053;-39
2021/12/06 09:38:14;;;;;;;64.93;25.02;;;;;;;9.77;79.74;98836.44;4877818;29;20033;-40
2021/12/06 09:40:45;;;;;;;68.82;26.30;;;;;;;9.92;78.61;98831.56;4885438;29;20202;-38
2021/12/06 09:43:11;;;;;;;66.18;25.30;;;;;;;9.80;79.41;98825.34;4886576;29;20036;-39
2021/12/06 09:45:36;;;;;;;68.05;26.23;;;;;;;9.78;79.23;98824.75;4884848;29;20096;-39
2021/12/06 09:48:03;;;;;;;70.03;27.23;;;;;;;9.75;79.18;98814.59;4886886;29;20035;-37
2021/12/06 09:50:32;;;;;;;71.93;27.77;;;;;;;9.64;78.92;98813.47;4883016;29;20025;-38
2021/12/06 09:52:59;;;;;;;71.72;27.23;;;;;;;9.57;80.06;98818.00;4884606;29;20037;-38
2021/12/06 09:55:25;;;;;;;71.95;28.00;;;;;;;9.64;80.38;98817.97;4885536;29;20025;-39
2021/12/06 09:57:50;;;;;;;92.05;35.60;;;;;;;9.62;81.47;98820.84;4886893;29;20112;-40
2021/12/06 10:00:18;;;;;;;78.68;30.48;;;;;;;9.86;80.17;98775.81;4884241;29;20509;-39
2021/12/06 10:02:43;;;;;;;60.38;23.25;;;;;;;10.05;79.86;98793.41;4867816;29;20060;-39
2021/12/06 10:05:09;;;;;;;54.67;22.20;;;;;;;10.83;79.42;98783.75;4881744;29;20028;-39
2021/12/06 10:07:35;;;;;;;46.55;20.75;;;;;;;10.61;76.73;98785.34;4875604;29;20116;-39
2021/12/06 10:10:00;;;;;;;45.22;20.15;;;;;;;10.28;76.64;98787.38;4876927;29;20032;-39
2021/12/06 10:12:27;;;;;;;44.47;19.67;;;;;;;9.93;78.17;98793.31;4860007;29;20040;-39
2021/12/06 10:14:55;;;;;;;50.63;20.38;;;;;;;10.15;78.19;98772.41;4876889;29;20498;-39
2021/12/06 10:17:20;;;;;;;50.90;21.90;;;;;;;10.15;79.87;98763.63;4878300;29;20116;-40
2021/12/06 10:19:46;;;;;;;61.30;23.15;;;;;;;10.87;79.08;98770.78;4880651;29;20117;-42
2021/12/06 10:22:12;;;;;;;62.38;24.58;;;;;;;10.72;77.80;98761.41;4880382;29;20036;-38
2021/12/06 10:24:38;;;;;;;57.22;23.40;;;;;;;10.76;77.52;98759.91;4880255;29;20043;-40
2021/12/06 10:27:09;;;;;;;59.95;24.38;;;;;;;10.87;77.02;98754.81;4882924;29;20021;-40
2021/12/06 10:29:38;;;;;;;57.35;23.85;;;;;;;10.96;76.77;98745.47;4898663;29;20025;-39
2021/12/06 10:32:20;;;;;;;58.20;24.05;;;;;;;10.63;78.12;98751.31;4898651;29;20046;-39
2021/12/06 10:34:49;;;;;;;57.67;25.70;;;;;;;10.88;76.19;98738.63;4897131;29;20052;-39
2021/12/06 10:37:54;;;;;;;57.70;25.52;;;;;;;10.80;76.66;98738.16;4898922;29;20036;-39
2021/12/06 10:40:20;;;;;;;63.88;29.48;;;;;;;10.65;77.28;98755.38;4887156;29;20429;-39
2021/12/06 10:42:47;;;;;;;68.95;29.85;;;;;;;10.95;76.13;98741.19;4898016;29;20092;-39
2021/12/06 10:45:18;;;;;;;67.20;30.00;;;;;;;10.80;76.60;98736.31;4897995;29;20056;-39
2021/12/06 10:48:02;;;;;;;66.75;29.05;;;;;;;10.85;76.67;98735.63;4898250;29;20033;-40
2021/12/06 10:50:28;;;;;;;62.53;27.95;;;;;;;10.72;77.71;98753.44;4883911;29;20033;-40
2021/12/06 10:52:55;;;;;;;59.42;26.65;;;;;;;10.69;77.59;98755.72;4897593;29;20406;-38
2021/12/06 10:55:23;;;;;;;55.47;25.85;;;;;;;10.73;78.16;98733.75;4898421;29;20036;-39
2021/12/06 10:57:56;;;;;;;58.22;26.58;;;;;;;10.81;76.63;98737.13;4898345;29;20104;-39
2021/12/06 11:00:41;;;;;;;57.72;23.98;;;;;;;10.86;77.63;98726.59;4897191;29;20111;-39
2021/12/06 11:03:22;;;;;;;51.67;22.85;;;;;;;10.77;77.57;98704.81;4879362;29;20108;-40
2021/12/06 11:06:03;;;;;;;56.33;23.75;;;;;;;10.79;77.32;98724.03;4879304;29;20470;-40
2021/12/06 11:08:30;;;;;;;59.00;24.50;;;;;;;10.82;76.39;98714.81;4879106;29;20116;-39
2021/12/06 11:11:00;;;;;;;57.15;24.83;;;;;;;10.85;77.06;98693.88;4877700;29;20134;-40
2021/12/06 11:13:31;;;;;;;54.45;24.58;;;;;;;10.83;76.22;98687.94;4879029;29;20039;-40
2021/12/06 11:16:07;;;;;;;62.10;26.80;;;;;;;10.71;77.55;98703.09;4879107;29;20124;-39
2021/12/06 11:18:48;;;;;;;58.40;25.80;;;;;;;10.87;76.90;98698.94;4879356;29;20051;-39
2021/12/06 11:21:18;;;;;;;53.40;24.55;;;;;;;10.69;77.12;98700.66;4897606;29;20032;-40
2021/12/06 11:24:01;;;;;;;54.58;24.15;;;;;;;10.73;77.00;98688.50;4898096;29;20028;-40
2021/12/06 11:26:27;;;;;;;57.35;24.95;;;;;;;10.86;76.66;98686.69;4897608;29;20038;-38
2021/12/06 11:28:52;;;;;;;62.53;25.50;;;;;;;10.87;76.73;98688.28;4897305;29;20405;-39
2021/12/06 11:31:18;;;;;;;58.38;24.92;;;;;;;10.82;76.76;98669.56;4885990;29;20032;-40
2021/12/06 11:33:44;;;;;;;62.10;26.48;;;;;;;11.12;76.22;98675.56;4898161;29;20028;-40
2021/12/06 11:36:20;;;;;;;53.72;24.88;;;;;;;11.25;75.51;98657.72;4896397;29;20049;-40